메인 페이지
METAR-TAF:

METAR-TAF

공항 :

Kelly Field Annex

샌안토니오, 텍사스, 미국

위도: 29-23N, 경도: 098-35W, 고도: 210m

현재 날씨관측

예보는 36분 전, 08:22시(UTC)에 발표되었습니다.
북북서3kt
온도 14°C
습도 100%
기압 1011 hPa
시정: 8.0km
고도 400ft 상공 흐림
박무

METAR: KSKF 090822Z AUTO 33003KT 5SM BR OVC004 14/14 A2984 RMK AO2 VIS 3/8 RWY34 SLP101

시각: 02:58 (08:58 UTC)

예보

예보는 58분 전, 08:00시(UTC)에 발표되었습니다.
예보 대상 시간: 09일 08시부터 10일 08시까지 (UTC)
여러 방향의 바람 3kt
시정: 0400m
고도 100ft 상공 흐림
안개
전환 중
09일 15시부터 09일 16시까지 (UTC)
여러 방향의 바람 3kt
시정: 4000m
고도 400ft 상공 흐림
박무
전환 중
09일 16시부터 09일 17시까지 (UTC)
여러 방향의 바람 4kt
시정 10km 이상
고도 700ft 상공 구름 많음
전환 중
09일 17시부터 09일 18시까지 (UTC)
여러 방향의 바람 5kt
시정 10km 이상
고도 1000ft 상공 구름 많음
전환 중
09일 18시부터 09일 19시까지 (UTC)
남동6kt
시정 10km 이상
고도 2000ft 상공 구름 보통
고도 25000ft 상공 구름 보통
전환 중
10일 04시부터 10일 05시까지 (UTC)
북북동16kt, 순간 최대 풍속 28kt
시정: 9000m
고도 2000ft 상공 구름 많음
약한소나기

TAF: KSKF 090800Z 0908/1008 VRB03KT 0400 FG OVC001 QNH2980INS BECMG 0915/0916 VRB03KT 4000 BR OVC004 QNH2986INS BECMG 0916/0917 VRB04KT 9999 NSW BKN007 QNH2984INS BECMG 0917/0918 VRB05KT 9999 BKN010 QNH2983INS BECMG 0918/0919 14006KT 9999 SCT020 SCT250 QNH2977INS BECMG 1004/1005 03016G28KT 9000 -SHRA BKN020 QNH2989INS TX25/0921Z TN13/0910Z

4,000개 이상의 공항 관측 자료 및 예보 (METAR 및 TAF 보고).

지도상에서 검색 가능한 기상관측소가 노란 점과 빨간 점으로 표시되어 있습니다.

기상관측소 명을 보려면 표시 위로 마우스를 이동하세요.

날씨 관측과 예보를 보려면 클릭하세요.

지도 변경 : 확대하려면 엑스 표시가 있는 녹색 버튼, 축소하려면 빼기 표시가 있는 녹색 버튼, 다음 페이지의 지도를 보려면 녹색 화살표를 클릭하세요.


METAR-TAF: